Time;durP1;ratioP1;P1;durP2;ratioP2;P2;SDS_P1;SDS_P2;PMS_P1;PMS_P2;Temp;Humidity;BMP_temperature;BMP_pressure;BME280_temperature;BME280_humidity;BME280_pressure;Samples;Min_cycle;Max_cycle;Signal;HPM_P1;HPM_P2
2023/03/04 00:01:44;;;;;;;8.45;3.30;;;5.90;99.90;;;;;;5112411;28;20024;-53
2023/03/04 00:04:09;;;;;;;9.75;3.30;;;5.80;99.90;;;;;;5112103;28;20028;-53
2023/03/04 00:06:35;;;;;;;12.00;3.40;;;5.90;99.90;;;;;;5112285;28;20024;-51
2023/03/04 00:09:02;;;;;;;10.07;3.22;;;5.90;99.90;;;;;;5112087;28;20040;-48
2023/03/04 00:11:28;;;;;;;13.35;3.47;;;5.90;99.90;;;;;;5111980;28;20016;-48
2023/03/04 00:13:55;;;;;;;10.50;3.25;;;5.90;99.90;;;;;;5112119;28;20035;-50
2023/03/04 00:16:20;;;;;;;13.23;3.58;;;5.90;99.90;;;;;;5112028;28;20047;-46
2023/03/04 00:18:46;;;;;;;12.73;3.60;;;5.90;99.90;;;;;;5110846;28;20383;-46
2023/03/04 00:21:11;;;;;;;10.63;3.38;;;5.90;99.90;;;;;;5111882;28;20023;-54
2023/03/04 00:23:37;;;;;;;9.85;2.95;;;5.90;99.90;;;;;;5122879;27;20038;-46
2023/03/04 00:26:03;;;;;;;12.20;3.28;;;5.90;99.90;;;;;;5114493;27;20012;-46
2023/03/04 00:28:28;;;;;;;10.43;3.53;;;5.90;99.90;;;;;;5111910;28;20115;-46
2023/03/04 00:30:54;;;;;;;11.60;3.33;;;5.90;99.90;;;;;;5111573;28;20034;-47
2023/03/04 00:33:19;;;;;;;11.77;3.30;;;5.90;99.90;;;;;;5097237;28;20046;-53
2023/03/04 00:35:45;;;;;;;9.88;3.25;;;5.90;99.90;;;;;;5111580;28;20103;-47
2023/03/04 00:38:11;;;;;;;8.13;3.10;;;5.80;99.90;;;;;;5111517;28;20075;-54
2023/03/04 00:40:36;;;;;;;10.95;3.33;;;5.80;99.90;;;;;;5111632;28;20441;-49
2023/03/04 00:43:02;;;;;;;8.50;3.55;;;5.80;99.90;;;;;;5111303;28;20043;-53
2023/03/04 00:45:28;;;;;;;8.35;3.45;;;5.80;99.90;;;;;;5111156;28;20050;-51
2023/03/04 00:47:53;;;;;;;9.05;3.38;;;5.80;99.90;;;;;;5111516;28;20352;-52
2023/03/04 00:50:19;;;;;;;11.85;3.10;;;5.80;99.90;;;;;;5111314;28;20102;-49
2023/03/04 00:52:45;;;;;;;13.68;3.30;;;5.80;99.90;;;;;;5114717;27;20046;-44
2023/03/04 00:55:10;;;;;;;10.05;3.03;;;5.90;99.90;;;;;;5116216;27;20161;-46
2023/03/04 00:57:36;;;;;;;12.18;2.85;;;5.80;99.90;;;;;;5110855;28;20023;-48
2023/03/04 01:00:02;;;;;;;13.63;4.32;;;5.80;99.90;;;;;;5111175;28;20032;-50
2023/03/04 01:02:28;;;;;;;16.77;3.67;;;5.90;99.90;;;;;;5113626;27;20040;-49
2023/03/04 01:04:53;;;;;;;10.05;3.13;;;5.80;99.90;;;;;;5119585;27;20426;-49
2023/03/04 01:07:19;;;;;;;14.55;3.17;;;5.80;99.90;;;;;;5111167;28;20034;-47
2023/03/04 01:09:44;;;;;;;15.20;3.72;;;5.80;99.90;;;;;;5111329;28;20023;-47
2023/03/04 01:12:11;;;;;;;17.35;3.70;;;5.80;99.90;;;;;;5110819;28;20467;-50
2023/03/04 01:14:36;;;;;;;13.23;3.70;;;5.80;99.90;;;;;;5111049;28;20024;-49
2023/03/04 01:17:02;;;;;;;12.82;3.45;;;5.90;99.90;;;;;;5110103;28;20030;-46
2023/03/04 01:19:28;;;;;;;12.02;3.08;;;5.80;99.90;;;;;;5111215;28;20031;-46
2023/03/04 01:21:54;;;;;;;11.48;2.42;;;5.80;99.90;;;;;;5111272;28;20041;-45
2023/03/04 01:24:19;;;;;;;9.65;2.45;;;5.80;99.90;;;;;;5124604;28;20032;-46
2023/03/04 01:26:45;;;;;;;7.30;2.45;;;5.80;99.90;;;;;;5110891;28;20077;-46
2023/03/04 01:29:10;;;;;;;9.27;2.28;;;5.80;99.90;;;;;;5110844;28;20473;-47
2023/03/04 01:31:36;;;;;;;10.60;2.35;;;5.80;99.90;;;;;;5107985;28;20017;-48
2023/03/04 01:34:02;;;;;;;11.77;2.17;;;5.80;99.90;;;;;;5099551;28;20059;-49
2023/03/04 01:36:27;;;;;;;7.55;1.70;;;5.80;99.90;;;;;;5110863;28;20031;-49
2023/03/04 01:38:53;;;;;;;6.50;2.10;;;5.80;99.90;;;;;;5111120;28;20011;-46
2023/03/04 01:41:23;;;;;;;9.90;1.90;;;5.80;99.90;;;;;;5110752;28;20467;-47
2023/03/04 01:43:49;;;;;;;8.27;2.45;;;5.70;99.90;;;;;;5110698;28;20032;-46
2023/03/04 01:46:16;;;;;;;11.20;2.22;;;5.70;99.90;;;;;;5110903;28;20016;-51
2023/03/04 01:48:43;;;;;;;11.40;2.42;;;5.70;99.90;;;;;;5110783;28;20024;-48
2023/03/04 01:51:14;;;;;;;8.93;1.85;;;5.70;99.90;;;;;;5110816;28;20024;-48
2023/03/04 01:53:41;;;;;;;9.63;1.80;;;5.70;99.90;;;;;;5118423;28;20467;-49
2023/03/04 01:56:11;;;;;;;9.68;2.22;;;5.70;99.90;;;;;;5116513;28;20487;-48
2023/03/04 01:58:37;;;;;;;9.45;2.03;;;5.70;99.90;;;;;;5111682;28;20038;-49
2023/03/04 02:01:03;;;;;;;8.60;1.98;;;5.70;99.90;;;;;;5109458;28;20020;-48
2023/03/04 02:03:29;;;;;;;5.10;1.70;;;5.70;99.90;;;;;;5110764;28;20027;-47
2023/03/04 02:05:55;;;;;;;14.07;2.00;;;5.70;99.90;;;;;;5110626;28;20498;-51
2023/03/04 02:08:23;;;;;;;4.80;1.90;;;5.70;99.90;;;;;;5110787;28;20152;-46
2023/03/04 02:10:50;;;;;;;10.18;2.53;;;5.60;99.90;;;;;;5113692;28;20090;-48
2023/03/04 02:13:16;;;;;;;6.65;1.83;;;5.60;99.90;;;;;;5114426;28;20085;-46
2023/03/04 02:15:44;;;;;;;8.57;2.25;;;5.60;99.90;;;;;;5114418;28;20494;-48
2023/03/04 02:18:22;;;;;;;10.80;2.15;;;5.60;99.90;;;;;;5114361;27;20019;-49
2023/03/04 02:21:02;;;;;;;9.45;1.63;;;5.60;99.90;;;;;;5114270;28;20399;-51
2023/03/04 02:23:55;;;;;;;10.43;3.03;;;5.60;99.90;;;;;;5122776;27;20545;-49
2023/03/04 02:26:23;;;;;;;8.90;1.88;;;5.60;99.90;;;;;;5114313;27;20027;-46
2023/03/04 02:28:51;;;;;;;7.65;1.92;;;5.60;99.90;;;;;;5114362;28;20028;-50
2023/03/04 02:31:32;;;;;;;11.23;2.08;;;5.60;99.90;;;;;;5113632;28;20024;-46
2023/03/04 02:34:01;;;;;;;8.55;1.80;;;5.60;99.90;;;;;;5102109;28;20048;-49
2023/03/04 02:36:28;;;;;;;7.20;1.90;;;5.50;99.90;;;;;;5114006;28;20100;-49
2023/03/04 02:38:54;;;;;;;9.20;1.77;;;5.60;99.90;;;;;;5114102;28;20468;-46
2023/03/04 02:41:25;;;;;;;6.20;1.52;;;5.60;99.90;;;;;;5112396;28;20027;-49
2023/03/04 02:43:55;;;;;;;8.38;2.72;;;5.60;99.90;;;;;;5113507;28;20027;-46
2023/03/04 02:46:21;;;;;;;7.78;1.88;;;5.60;99.90;;;;;;5113763;28;20121;-47
2023/03/04 02:48:48;;;;;;;7.32;1.90;;;5.50;99.90;;;;;;5113527;28;20116;-47
2023/03/04 02:51:13;;;;;;;9.38;2.10;;;5.60;99.90;;;;;;5113399;28;20024;-50
2023/03/04 02:53:39;;;;;;;12.82;2.42;;;5.50;99.90;;;;;;5123890;27;20035;-46
2023/03/04 02:56:05;;;;;;;7.43;2.15;;;5.50;99.90;;;;;;5113366;28;20028;-44
2023/03/04 02:58:30;;;;;;;7.32;1.92;;;5.50;99.90;;;;;;5112927;28;20026;-45
2023/03/04 03:00:56;;;;;;;7.03;1.98;;;5.60;99.90;;;;;;5111833;28;20383;-49
2023/03/04 03:03:22;;;;;;;13.43;2.10;;;5.50;99.90;;;;;;5113505;28;20065;-47
2023/03/04 03:05:47;;;;;;;10.48;2.13;;;5.60;99.90;;;;;;5113452;28;20085;-47
2023/03/04 03:08:13;;;;;;;6.05;2.00;;;5.60;99.90;;;;;;5113449;28;20020;-49
2023/03/04 03:10:39;;;;;;;8.32;1.65;;;5.50;99.90;;;;;;5113410;28;20487;-49
2023/03/04 03:13:04;;;;;;;7.05;1.55;;;5.50;99.90;;;;;;5113021;28;20016;-46
2023/03/04 03:15:30;;;;;;;9.25;1.92;;;5.50;99.90;;;;;;5112940;28;20092;-50
2023/03/04 03:17:56;;;;;;;8.20;1.77;;;5.50;99.90;;;;;;5113361;28;20110;-47
2023/03/04 03:20:22;;;;;;;11.10;1.95;;;5.50;99.90;;;;;;5113119;28;20468;-51
2023/03/04 03:22:47;;;;;;;10.25;2.03;;;5.50;99.90;;;;;;5114003;27;20080;-50
2023/03/04 03:25:14;;;;;;;8.68;2.17;;;5.50;99.90;;;;;;5113108;28;20153;-47
2023/03/04 03:27:40;;;;;;;10.40;1.92;;;5.50;99.90;;;;;;5112802;28;20019;-50
2023/03/04 03:30:08;;;;;;;7.50;2.05;;;5.50;99.90;;;;;;5112834;28;20024;-49
2023/03/04 03:32:34;;;;;;;5.45;1.45;;;5.50;99.90;;;;;;5124695;27;20050;-51
2023/03/04 03:35:00;;;;;;;7.18;1.60;;;5.50;99.90;;;;;;5116025;27;20074;-47
2023/03/04 03:37:25;;;;;;;6.20;1.88;;;5.50;99.90;;;;;;5113013;28;20023;-50
2023/03/04 03:39:51;;;;;;;14.98;2.30;;;5.50;99.90;;;;;;5112800;28;20148;-50
2023/03/04 03:42:16;;;;;;;7.65;1.95;;;5.50;99.90;;;;;;5112571;28;20106;-52
2023/03/04 03:44:42;;;;;;;5.18;2.08;;;5.50;99.90;;;;;;5112635;28;20034;-50
2023/03/04 03:47:08;;;;;;;9.35;2.30;;;5.50;99.90;;;;;;5112549;28;20023;-53
2023/03/04 03:49:33;;;;;;;9.07;1.88;;;5.50;99.90;;;;;;5112662;28;20035;-51
2023/03/04 03:51:59;;;;;;;10.55;2.90;;;5.50;99.90;;;;;;5112380;28;20023;-48
2023/03/04 03:54:24;;;;;;;6.53;2.00;;;5.50;99.90;;;;;;5121725;27;20028;-45
2023/03/04 03:56:50;;;;;;;6.82;2.08;;;5.50;99.90;;;;;;5112164;28;20084;-52
2023/03/04 03:59:16;;;;;;;10.27;2.38;;;5.50;99.90;;;;;;5122681;27;20019;-46
2023/03/04 04:01:41;;;;;;;9.98;2.08;;;5.50;99.90;;;;;;5111999;28;20086;-53
2023/03/04 04:04:08;;;;;;;7.28;2.25;;;5.50;99.90;;;;;;5112197;28;20038;-47
2023/03/04 04:06:34;;;;;;;14.38;2.97;;;5.50;99.90;;;;;;5112458;28;20027;-48
2023/03/04 04:08:59;;;;;;;9.23;2.38;;;5.50;99.90;;;;;;5112147;28;20417;-49
2023/03/04 04:11:25;;;;;;;11.52;2.28;;;5.50;99.90;;;;;;5111746;28;20049;-46
2023/03/04 04:13:50;;;;;;;6.90;2.00;;;5.50;99.90;;;;;;5111555;28;20038;-51
2023/03/04 04:16:16;;;;;;;7.40;2.10;;;5.50;99.90;;;;;;5112232;28;20385;-51
2023/03/04 04:18:42;;;;;;;5.10;1.33;;;5.40;99.90;;;;;;5112045;28;20049;-50
2023/03/04 04:21:08;;;;;;;5.40;1.50;;;5.50;99.90;;;;;;5111529;28;20023;-48
2023/03/04 04:23:34;;;;;;;5.72;1.77;;;5.40;99.90;;;;;;5110701;28;20039;-49
2023/03/04 04:25:59;;;;;;;5.55;1.13;;;5.40;99.90;;;;;;5103425;28;20035;-54
2023/03/04 04:28:25;;;;;;;6.88;1.58;;;5.40;99.90;;;;;;5111720;27;20490;-47
2023/03/04 04:30:51;;;;;;;5.18;1.40;;;5.40;99.90;;;;;;5111733;28;20030;-45
2023/03/04 04:33:16;;;;;;;8.30;1.35;;;5.40;99.90;;;;;;5096745;28;20114;-52
2023/03/04 04:35:42;;;;;;;4.03;1.08;;;5.40;99.90;;;;;;5111748;28;20031;-46
2023/03/04 04:38:08;;;;;;;6.32;1.30;;;5.40;99.90;;;;;;5111621;28;20034;-50
2023/03/04 04:40:34;;;;;;;6.60;1.45;;;5.40;99.90;;;;;;5096728;28;20020;-44
2023/03/04 04:43:00;;;;;;;4.15;1.20;;;5.40;99.90;;;;;;5089767;28;20096;-46
2023/03/04 04:45:25;;;;;;;5.90;1.40;;;5.40;99.90;;;;;;5093332;28;20032;-46
2023/03/04 04:47:52;;;;;;;5.50;1.55;;;5.40;99.90;;;;;;5109364;28;20051;-47
2023/03/04 04:50:18;;;;;;;5.68;1.52;;;5.40;99.90;;;;;;5096600;27;20106;-44
2023/03/04 04:52:44;;;;;;;4.90;1.40;;;5.40;99.90;;;;;;5111476;28;20106;-51
2023/03/04 04:55:09;;;;;;;7.28;1.40;;;5.40;99.90;;;;;;5111172;28;20031;-44
2023/03/04 04:57:35;;;;;;;8.95;1.30;;;5.40;99.90;;;;;;5107186;27;20031;-44
2023/03/04 05:00:02;;;;;;;12.65;1.38;;;5.40;99.90;;;;;;5117321;27;20024;-45
2023/03/04 05:02:27;;;;;;;4.88;1.20;;;5.40;99.90;;;;;;5110575;28;20675;-46
2023/03/04 05:04:53;;;;;;;5.47;1.30;;;5.40;99.90;;;;;;5112307;27;20032;-46
2023/03/04 05:07:19;;;;;;;7.13;1.25;;;5.40;99.90;;;;;;5113271;27;20031;-46
2023/03/04 05:09:44;;;;;;;8.23;1.52;;;5.40;99.90;;;;;;5111114;28;20024;-46
2023/03/04 05:12:10;;;;;;;6.78;1.50;;;5.40;99.90;;;;;;5110338;28;20384;-45
2023/03/04 05:14:36;;;;;;;3.80;1.30;;;5.40;99.90;;;;;;5103375;28;20036;-45
2023/03/04 05:17:02;;;;;;;5.72;1.40;;;5.40;99.90;;;;;;5104187;28;20483;-48
2023/03/04 05:19:28;;;;;;;7.07;1.33;;;5.40;99.90;;;;;;5111350;28;20039;-44
2023/03/04 05:21:54;;;;;;;4.95;1.65;;;5.40;99.90;;;;;;5110930;28;20020;-44
2023/03/04 05:24:19;;;;;;;5.85;1.40;;;5.40;99.90;;;;;;5110753;28;20031;-45
2023/03/04 05:26:45;;;;;;;5.38;1.30;;;5.40;99.90;;;;;;5110817;28;20112;-45
2023/03/04 05:29:11;;;;;;;3.33;1.02;;;5.50;99.90;;;;;;5111119;28;20487;-46
2023/03/04 05:31:36;;;;;;;4.43;1.02;;;5.40;99.90;;;;;;5111132;28;20023;-47
2023/03/04 05:34:02;;;;;;;5.60;1.38;;;5.40;99.90;;;;;;5103172;28;20521;-46
2023/03/04 05:36:27;;;;;;;4.13;1.42;;;5.40;99.90;;;;;;5109737;28;20032;-44
2023/03/04 05:38:53;;;;;;;6.35;1.23;;;5.40;99.90;;;;;;5110830;28;20024;-44
2023/03/04 05:41:21;;;;;;;5.65;1.55;;;5.40;99.90;;;;;;5104685;28;20047;-46
2023/03/04 05:43:48;;;;;;;5.53;1.40;;;5.40;99.90;;;;;;5111214;28;20039;-47
2023/03/04 05:46:15;;;;;;;5.53;1.85;;;5.40;99.90;;;;;;5114970;28;20027;-48
2023/03/04 05:48:42;;;;;;;5.57;1.40;;;5.40;99.90;;;;;;5107797;28;20016;-50
2023/03/04 05:51:07;;;;;;;6.15;1.45;;;5.40;99.90;;;;;;5107513;28;20062;-46
2023/03/04 05:53:35;;;;;;;6.53;1.58;;;5.40;99.90;;;;;;5114636;28;20448;-46
2023/03/04 05:56:07;;;;;;;3.75;1.17;;;5.40;99.90;;;;;;5114571;28;20042;-46
2023/03/04 05:58:32;;;;;;;5.03;1.30;;;5.40;99.90;;;;;;5119541;27;20039;-47
2023/03/04 06:01:01;;;;;;;5.50;1.35;;;5.40;99.90;;;;;;5114338;28;20106;-51
2023/03/04 06:03:27;;;;;;;5.95;1.40;;;5.40;99.90;;;;;;5114294;28;20035;-50
2023/03/04 06:05:53;;;;;;;4.75;1.17;;;5.40;99.90;;;;;;5114724;28;20020;-49
2023/03/04 06:08:18;;;;;;;5.82;1.20;;;5.40;99.90;;;;;;5114416;28;20034;-46
2023/03/04 06:10:44;;;;;;;5.25;1.17;;;5.40;99.90;;;;;;5103708;27;20047;-52
2023/03/04 06:13:10;;;;;;;7.05;1.00;;;5.40;99.90;;;;;;5106174;28;20425;-50
2023/03/04 06:15:37;;;;;;;7.47;1.40;;;5.40;99.90;;;;;;5114213;28;20041;-47
2023/03/04 06:18:03;;;;;;;3.08;1.15;;;5.40;99.90;;;;;;5114241;28;20094;-51
2023/03/04 06:20:29;;;;;;;5.00;1.40;;;5.40;99.90;;;;;;5114242;28;20063;-49
2023/03/04 06:22:54;;;;;;;2.80;0.85;;;5.40;99.90;;;;;;5114058;28;20377;-46
2023/03/04 06:25:20;;;;;;;3.78;1.23;;;5.40;99.90;;;;;;5113923;28;20032;-48
2023/03/04 06:27:45;;;;;;;5.28;1.17;;;5.40;99.90;;;;;;5117765;27;20095;-53
2023/03/04 06:30:11;;;;;;;4.30;1.20;;;5.40;99.90;;;;;;5113960;28;20031;-55
2023/03/04 06:32:37;;;;;;;5.93;1.50;;;5.40;99.90;;;;;;5113806;27;20036;-49
2023/03/04 06:35:03;;;;;;;5.35;1.52;;;5.40;99.90;;;;;;5113899;28;20028;-55
2023/03/04 06:37:29;;;;;;;6.55;1.70;;;5.40;99.90;;;;;;5113685;28;20071;-48
2023/03/04 06:39:55;;;;;;;5.68;1.20;;;5.30;99.90;;;;;;5113756;28;20107;-50
2023/03/04 06:42:20;;;;;;;7.45;1.40;;;5.30;99.90;;;;;;5113780;28;20031;-47
2023/03/04 06:44:48;;;;;;;4.55;1.35;;;5.40;99.90;;;;;;5113968;28;20012;-51
2023/03/04 06:47:14;;;;;;;8.90;1.52;;;5.30;99.90;;;;;;5113950;28;20069;-47
2023/03/04 06:49:39;;;;;;;6.10;1.30;;;5.30;99.90;;;;;;5099379;28;20020;-46
2023/03/04 06:52:05;;;;;;;6.45;1.40;;;5.40;99.90;;;;;;5112408;28;20019;-48
2023/03/04 06:54:30;;;;;;;5.25;1.48;;;5.40;99.90;;;;;;5113762;28;20099;-50
2023/03/04 06:56:56;;;;;;;4.63;1.45;;;5.40;99.90;;;;;;5101729;27;20145;-46
2023/03/04 06:59:21;;;;;;;6.13;1.58;;;5.40;99.90;;;;;;5121144;27;20068;-49
2023/03/04 07:01:47;;;;;;;5.32;1.60;;;5.40;99.90;;;;;;5113354;27;20032;-50
2023/03/04 07:04:13;;;;;;;9.05;1.50;;;5.40;99.90;;;;;;5113240;28;20032;-49
2023/03/04 07:06:39;;;;;;;6.38;1.60;;;5.40;99.90;;;;;;5113458;27;20466;-52
2023/03/04 07:09:04;;;;;;;7.30;1.90;;;5.40;99.90;;;;;;5113376;28;20024;-54
2023/03/04 07:11:30;;;;;;;3.70;1.48;;;5.40;99.90;;;;;;5101109;28;20384;-51
2023/03/04 07:13:55;;;;;;;9.52;2.03;;;5.50;99.90;;;;;;5111771;28;20027;-47
2023/03/04 07:16:22;;;;;;;4.95;1.20;;;5.50;99.90;;;;;;5109974;27;20400;-54
2023/03/04 07:18:48;;;;;;;4.88;1.33;;;5.50;99.90;;;;;;5109860;28;20031;-50
2023/03/04 07:21:15;;;;;;;5.97;1.52;;;5.50;99.90;;;;;;5112945;28;20024;-50
2023/03/04 07:23:41;;;;;;;7.72;1.70;;;5.50;99.90;;;;;;5112847;28;20059;-52
2023/03/04 07:26:07;;;;;;;6.38;1.50;;;5.50;99.90;;;;;;5106272;28;20040;-47
2023/03/04 07:28:34;;;;;;;10.02;1.63;;;5.50;99.90;;;;;;5107480;27;20049;-50
2023/03/04 07:31:23;;;;;;;6.68;1.58;;;5.50;99.90;;;;;;5112780;27;20552;-51
2023/03/04 07:33:49;;;;;;;6.35;1.80;;;5.60;99.90;;;;;;5112583;28;20055;-52
2023/03/04 07:36:15;;;;;;;10.48;1.90;;;5.60;99.90;;;;;;5113080;28;20659;-48
2023/03/04 07:38:45;;;;;;;7.93;1.90;;;5.60;99.90;;;;;;5112971;28;20039;-47
2023/03/04 07:41:11;;;;;;;4.32;1.70;;;5.60;99.90;;;;;;5101440;27;20099;-52
2023/03/04 07:43:36;;;;;;;5.80;1.55;;;5.70;99.90;;;;;;5112770;28;20119;-51
2023/03/04 07:46:02;;;;;;;4.85;1.83;;;5.70;99.90;;;;;;5112433;27;20119;-54
2023/03/04 07:48:28;;;;;;;6.95;2.03;;;5.70;99.90;;;;;;5107305;28;20094;-48
2023/03/04 07:51:06;;;;;;;5.40;1.70;;;5.70;99.90;;;;;;5103678;28;20085;-53
2023/03/04 07:53:32;;;;;;;4.78;2.10;;;5.70;99.90;;;;;;5112324;28;20016;-55
2023/03/04 07:55:58;;;;;;;11.27;2.30;;;5.70;99.90;;;;;;5112272;28;20028;-52
2023/03/04 07:58:24;;;;;;;6.70;2.17;;;5.70;99.90;;;;;;5122229;27;20031;-49
2023/03/04 08:00:49;;;;;;;9.27;2.20;;;5.80;99.90;;;;;;5112351;28;20636;-51
2023/03/04 08:03:15;;;;;;;6.38;2.10;;;5.80;99.90;;;;;;5112036;28;20064;-54
2023/03/04 08:05:40;;;;;;;9.30;2.63;;;5.80;99.90;;;;;;5111851;28;20432;-51
2023/03/04 08:08:06;;;;;;;9.15;1.88;;;5.80;99.90;;;;;;5110792;28;20027;-52
2023/03/04 08:10:32;;;;;;;8.25;2.58;;;5.90;99.90;;;;;;5111743;28;20016;-49
2023/03/04 08:12:58;;;;;;;7.40;2.13;;;5.90;99.90;;;;;;5111603;28;20050;-51
2023/03/04 08:15:26;;;;;;;3.53;1.50;;;5.90;99.90;;;;;;5111163;28;20468;-51
2023/03/04 08:17:52;;;;;;;6.40;2.00;;;5.90;99.90;;;;;;5111676;28;20020;-52
2023/03/04 08:20:17;;;;;;;6.35;2.22;;;5.90;99.90;;;;;;5111703;28;20114;-53
2023/03/04 08:22:43;;;;;;;7.78;1.83;;;6.00;99.90;;;;;;5111845;28;20145;-50
2023/03/04 08:25:08;;;;;;;6.47;1.90;;;6.00;99.90;;;;;;5110720;28;20076;-51
2023/03/04 08:27:36;;;;;;;4.47;1.48;;;6.10;99.90;;;;;;5112150;28;20392;-47
2023/03/04 08:30:03;;;;;;;6.18;2.30;;;6.10;99.90;;;;;;5110429;28;20028;-47
2023/03/04 08:32:28;;;;;;;6.10;1.67;;;6.10;99.90;;;;;;5109332;28;20024;-50
2023/03/04 08:34:55;;;;;;;5.25;2.13;;;6.20;99.90;;;;;;5109839;28;20030;-46
2023/03/04 08:37:21;;;;;;;10.32;1.70;;;6.30;99.90;;;;;;5109810;28;20019;-47
2023/03/04 08:39:47;;;;;;;4.22;1.35;;;6.30;99.90;;;;;;5110521;28;20693;-46
2023/03/04 08:42:13;;;;;;;5.32;1.52;;;6.40;99.90;;;;;;5110582;28;20012;-48
2023/03/04 08:44:38;;;;;;;4.07;1.42;;;6.50;99.90;;;;;;5110684;28;20493;-47
2023/03/04 08:47:08;;;;;;;7.03;2.03;;;6.60;99.90;;;;;;5111473;28;20041;-47
2023/03/04 08:49:33;;;;;;;3.53;1.50;;;6.80;99.90;;;;;;5097371;28;20032;-47
2023/03/04 08:51:59;;;;;;;5.35;1.65;;;6.80;99.90;;;;;;5111368;28;20039;-49
2023/03/04 08:54:24;;;;;;;4.20;1.23;;;6.80;99.90;;;;;;5111471;28;20026;-47
2023/03/04 08:56:50;;;;;;;8.40;1.75;;;6.90;99.90;;;;;;5112764;28;20387;-49
2023/03/04 08:59:15;;;;;;;10.57;1.80;;;6.90;99.90;;;;;;5122113;27;20172;-54
2023/03/04 09:01:41;;;;;;;5.68;2.10;;;6.90;99.90;;;;;;5112512;27;20030;-47
2023/03/04 09:04:07;;;;;;;5.65;1.80;;;7.00;99.90;;;;;;5127981;27;20444;-45
2023/03/04 09:06:32;;;;;;;8.20;1.58;;;7.00;99.90;;;;;;5117743;27;20023;-50
2023/03/04 09:08:58;;;;;;;5.47;1.40;;;6.90;99.90;;;;;;5111058;28;20072;-49
2023/03/04 09:11:23;;;;;;;7.45;1.67;;;7.00;99.90;;;;;;5110666;28;20019;-47
2023/03/04 09:13:50;;;;;;;7.78;1.63;;;7.00;99.90;;;;;;5110746;28;20046;-48
2023/03/04 09:16:16;;;;;;;7.80;2.53;;;6.90;99.90;;;;;;5111259;28;20039;-47
2023/03/04 09:18:42;;;;;;;6.03;1.88;;;7.10;99.90;;;;;;5110786;28;20035;-47
2023/03/04 09:21:08;;;;;;;5.47;1.67;;;7.10;99.90;;;;;;5110973;28;20027;-50
2023/03/04 09:23:35;;;;;;;10.45;2.00;;;7.20;99.90;;;;;;5110998;28;20395;-51
2023/03/04 09:26:01;;;;;;;7.22;1.70;;;7.30;99.90;;;;;;5111030;28;20023;-50
2023/03/04 09:28:26;;;;;;;4.25;1.40;;;7.20;99.90;;;;;;5113631;28;20032;-52
2023/03/04 09:30:52;;;;;;;6.88;1.73;;;7.30;99.90;;;;;;5111163;28;20088;-53
2023/03/04 09:33:18;;;;;;;11.65;2.00;;;7.30;99.90;;;;;;5110849;28;20400;-47
2023/03/04 09:35:43;;;;;;;6.00;1.70;;;7.30;99.90;;;;;;5110745;28;20031;-55
2023/03/04 09:38:09;;;;;;;7.15;1.67;;;7.40;99.90;;;;;;5104377;28;20414;-58
2023/03/04 09:40:40;;;;;;;9.35;1.77;;;7.40;99.90;;;;;;5110822;28;20023;-53
2023/03/04 09:43:18;;;;;;;6.07;1.83;;;7.50;99.90;;;;;;5110404;28;20023;-47
2023/03/04 09:45:48;;;;;;;8.02;2.17;;;7.40;99.90;;;;;;5104541;28;20487;-46
2023/03/04 09:48:19;;;;;;;5.10;2.25;;;7.30;99.90;;;;;;5104712;28;20033;-47
2023/03/04 09:51:10;;;;;;;7.13;1.77;;;7.40;99.90;;;;;;5100247;28;20035;-50
2023/03/04 09:54:01;;;;;;;6.40;1.83;;;7.40;99.90;;;;;;5096075;28;20476;-47
2023/03/04 09:56:36;;;;;;;7.88;1.70;;;7.40;99.90;;;;;;5111702;28;20099;-46
2023/03/04 09:59:28;;;;;;;5.00;2.03;;;7.40;99.90;;;;;;5114307;28;20024;-48
2023/03/04 10:01:59;;;;;;;5.88;1.90;;;7.60;99.90;;;;;;5108336;28;20123;-46
2023/03/04 10:04:35;;;;;;;7.10;1.75;;;7.50;99.90;;;;;;5116982;28;20046;-46
2023/03/04 10:07:12;;;;;;;7.57;1.60;;;7.50;99.90;;;;;;5108283;28;20016;-46
2023/03/04 10:09:50;;;;;;;5.15;1.60;;;7.60;99.90;;;;;;5110538;28;20118;-47
2023/03/04 10:12:22;;;;;;;6.50;1.98;;;7.70;99.90;;;;;;5109289;28;20460;-51
2023/03/04 10:14:53;;;;;;;8.43;2.13;;;7.60;99.90;;;;;;5110695;28;20043;-48
2023/03/04 10:17:31;;;;;;;12.52;2.00;;;7.80;99.90;;;;;;5107849;28;20026;-52
2023/03/04 10:20:15;;;;;;;6.80;1.98;;;7.90;99.90;;;;;;5110611;28;20080;-49
2023/03/04 10:22:44;;;;;;;8.30;1.80;;;8.00;99.90;;;;;;5099803;28;20077;-48
2023/03/04 10:25:25;;;;;;;6.53;1.70;;;7.90;99.90;;;;;;5110579;28;20544;-49
2023/03/04 10:28:10;;;;;;;7.85;1.90;;;8.00;99.90;;;;;;5109130;28;20088;-47
2023/03/04 10:30:57;;;;;;;7.03;1.70;;;8.40;99.90;;;;;;5100825;28;20028;-49
2023/03/04 10:33:29;;;;;;;4.47;1.63;;;9.10;99.90;;;;;;5104690;27;20044;-50
2023/03/04 10:36:28;;;;;;;6.43;1.90;;;9.70;99.90;;;;;;5114687;27;20031;-48
2023/03/04 10:39:25;;;;;;;9.30;2.33;;;9.90;98.10;;;;;;5114182;27;20508;-50
2023/03/04 10:42:01;;;;;;;6.35;1.45;;;9.90;97.50;;;;;;5086168;28;20028;-50
2023/03/04 10:44:28;;;;;;;4.25;1.50;;;9.40;97.30;;;;;;5113512;28;20372;-51
2023/03/04 10:46:56;;;;;;;4.15;1.40;;;9.00;98.40;;;;;;5113538;28;20023;-48
2023/03/04 10:49:23;;;;;;;8.10;1.20;;;8.80;98.80;;;;;;5101522;28;20059;-49
2023/03/04 10:51:52;;;;;;;5.00;1.20;;;8.60;99.40;;;;;;5094982;28;20400;-50
2023/03/04 10:54:26;;;;;;;2.85;1.20;;;8.40;99.90;;;;;;5095074;28;20035;-47
2023/03/04 10:57:12;;;;;;;3.58;1.30;;;8.20;99.90;;;;;;5093195;28;20020;-47
2023/03/04 10:59:55;;;;;;;3.55;1.10;;;8.00;99.90;;;;;;5095479;28;20377;-49
2023/03/04 11:02:30;;;;;;;2.90;1.15;;;7.80;99.90;;;;;;5095863;27;20476;-47
2023/03/04 11:05:25;;;;;;;3.78;1.42;;;7.80;99.90;;;;;;5094441;28;20036;-52
2023/03/04 11:07:57;;;;;;;4.80;1.15;;;7.80;99.90;;;;;;5093869;28;20036;-55
2023/03/04 11:10:39;;;;;;;5.93;1.75;;;7.90;99.90;;;;;;5094114;28;20070;-50
2023/03/04 11:13:11;;;;;;;3.90;1.27;;;8.00;99.90;;;;;;5093463;28;20024;-47
2023/03/04 11:16:22;;;;;;;6.13;2.10;;;8.00;99.90;;;;;;5095784;28;20016;-47
2023/03/04 11:18:54;;;;;;;2.90;1.00;;;8.10;99.90;;;;;;5092446;28;20056;-51
2023/03/04 11:21:25;;;;;;;5.13;1.95;;;8.50;99.90;;;;;;5094929;28;20578;-52
2023/03/04 11:24:00;;;;;;;2.88;1.23;;;9.10;99.90;;;;;;5095190;28;20523;-49
2023/03/04 11:26:35;;;;;;;2.85;1.02;;;10.20;99.90;;;;;;5096353;28;20404;-50
2023/03/04 11:29:19;;;;;;;4.20;1.10;;;11.70;97.20;;;;;;5093585;28;20057;-49
2023/03/04 11:32:00;;;;;;;4.05;1.13;;;13.20;92.30;;;;;;5093232;28;20039;-52
2023/03/04 11:34:36;;;;;;;2.40;0.90;;;13.20;89.30;;;;;;5100930;27;20052;-47
2023/03/04 11:37:29;;;;;;;2.97;0.95;;;12.30;89.30;;;;;;5109741;27;20502;-46
2023/03/04 11:40:19;;;;;;;6.85;1.10;;;11.60;90.50;;;;;;5110459;27;20032;-46
2023/03/04 11:43:02;;;;;;;4.18;1.10;;;10.50;91.20;;;;;;5098339;27;20050;-50
2023/03/04 11:45:47;;;;;;;4.13;1.20;;;9.80;92.20;;;;;;5101892;27;20030;-46
2023/03/04 11:48:34;;;;;;;5.50;0.98;;;9.50;93.00;;;;;;5097814;28;20053;-45
2023/03/04 11:51:18;;;;;;;2.58;0.90;;;9.30;93.70;;;;;;5099432;28;20055;-53
2023/03/04 11:54:05;;;;;;;3.90;1.13;;;8.90;94.30;;;;;;5110448;27;20051;-52
2023/03/04 11:56:39;;;;;;;2.85;1.13;;;8.60;94.80;;;;;;5111715;27;20031;-50
2023/03/04 11:59:31;;;;;;;4.47;1.30;;;8.50;96.30;;;;;;5112272;28;20073;-47
2023/03/04 12:02:14;;;;;;;5.55;1.40;;;8.40;97.00;;;;;;5111082;28;20054;-45
2023/03/04 12:04:42;;;;;;;4.60;1.33;;;8.40;97.20;;;;;;5111421;28;20031;-44
2023/03/04 12:07:57;;;;;;;3.85;1.13;;;8.30;97.70;;;;;;5112090;28;20012;-44
2023/03/04 12:10:35;;;;;;;3.38;1.48;;;8.40;98.30;;;;;;5096225;28;20027;-44
2023/03/04 12:13:04;;;;;;;4.50;1.50;;;8.40;98.70;;;;;;5102991;27;20066;-44
2023/03/04 12:15:48;;;;;;;4.45;1.90;;;8.50;98.80;;;;;;5112286;27;20448;-45
2023/03/04 12:18:25;;;;;;;3.50;1.55;;;8.50;98.30;;;;;;5109770;27;20476;-48
2023/03/04 12:20:56;;;;;;;4.57;1.77;;;8.60;98.70;;;;;;5104375;27;20024;-52
2023/03/04 12:23:51;;;;;;;5.22;1.50;;;8.70;98.30;;;;;;5093457;28;20036;-46
2023/03/04 12:26:16;;;;;;;4.75;1.40;;;8.80;98.60;;;;;;5096114;28;20050;-49
2023/03/04 12:29:15;;;;;;;9.15;1.55;;;8.80;98.00;;;;;;5108883;28;20039;-52
2023/03/04 12:31:57;;;;;;;3.70;1.52;;;8.80;97.50;;;;;;5101822;28;20032;-51
2023/03/04 12:34:50;;;;;;;2.90;1.30;;;8.70;97.70;;;;;;5111874;27;20127;-49
2023/03/04 12:37:25;;;;;;;5.45;1.30;;;8.70;97.80;;;;;;5094463;28;20400;-50
2023/03/04 12:39:59;;;;;;;4.05;1.40;;;8.60;97.50;;;;;;5111620;27;20072;-52
2023/03/04 12:42:45;;;;;;;4.18;1.25;;;8.50;97.10;;;;;;5099130;28;20020;-49
2023/03/04 12:45:33;;;;;;;4.95;1.35;;;8.40;98.20;;;;;;5101365;28;20034;-50
2023/03/04 12:48:13;;;;;;;3.17;1.42;;;8.30;97.90;;;;;;5110383;28;20030;-45
2023/03/04 12:51:05;;;;;;;4.40;1.27;;;8.30;97.70;;;;;;5100244;28;20080;-48
2023/03/04 12:54:01;;;;;;;4.15;1.25;;;8.20;97.50;;;;;;5110673;28;20483;-45
2023/03/04 12:56:47;;;;;;;4.15;1.33;;;8.30;97.80;;;;;;5111088;28;20476;-45
2023/03/04 12:59:17;;;;;;;2.72;1.10;;;8.20;97.40;;;;;;5111398;28;20072;-45
2023/03/04 13:02:20;;;;;;;3.15;1.25;;;8.20;97.00;;;;;;5108635;27;20016;-45
2023/03/04 13:04:58;;;;;;;3.00;1.08;;;8.10;97.00;;;;;;5076065;28;20052;-46
2023/03/04 13:07:26;;;;;;;2.88;1.52;;;8.10;96.80;;;;;;5100762;28;20031;-46
2023/03/04 13:10:08;;;;;;;2.83;1.17;;;8.30;97.10;;;;;;5109784;28;20028;-46